Time;durP1;ratioP1;P1;durP2;ratioP2;P2;SDS_P1;SDS_P2;PMS_P1;PMS_P2;Temp;Humidity;BMP_temperature;BMP_pressure;BME280_temperature;BME280_humidity;BME280_pressure;Samples;Min_cycle;Max_cycle;Signal;HPM_P1;HPM_P2
2023/08/28 00:00:59;;;;;;;4.17;3.07;;;;;;;13.82;89.88;100323.97;5091217;28;21049;-81
2023/08/28 00:03:25;;;;;;;3.30;2.60;;;;;;;13.78;89.99;100317.19;5094714;28;20203;-81
2023/08/28 00:05:52;;;;;;;4.27;2.77;;;;;;;13.73;90.46;100298.81;5094494;28;20208;-81
2023/08/28 00:08:21;;;;;;;3.13;2.40;;;;;;;13.74;90.30;100305.03;5094467;28;20220;-82
2023/08/28 00:10:48;;;;;;;2.80;2.60;;;;;;;13.72;90.81;100301.63;5086417;28;20204;-83
2023/08/28 00:13:14;;;;;;;3.13;2.80;;;;;;;13.68;90.60;100301.00;5088188;28;20705;-82
2023/08/28 00:15:41;;;;;;;3.33;2.93;;;;;;;13.64;91.16;100306.72;5093835;28;20208;-83
2023/08/28 00:18:08;;;;;;;3.40;2.73;;;;;;;13.63;91.18;100305.88;5087912;28;20230;-80
2023/08/28 00:20:35;;;;;;;3.73;2.80;;;;;;;13.63;91.45;100291.66;5094036;28;20197;-82
2023/08/28 00:23:01;;;;;;;3.40;2.80;;;;;;;13.61;90.99;100282.94;5094147;28;20207;-81
2023/08/28 00:25:28;;;;;;;3.90;2.77;;;;;;;13.59;91.32;100282.19;5089621;28;20206;-82
2023/08/28 00:27:54;;;;;;;3.40;3.10;;;;;;;13.54;91.55;100299.47;5090307;28;20250;-83
2023/08/28 00:30:21;;;;;;;4.27;3.50;;;;;;;13.51;91.82;100304.22;5092462;28;20349;-83
2023/08/28 00:32:47;;;;;;;7.87;3.83;;;;;;;13.52;91.93;100309.44;5098285;28;20228;-83
2023/08/28 00:35:16;;;;;;;5.03;2.77;;;;;;;13.50;92.29;100307.84;5092534;28;20196;-81
2023/08/28 00:37:42;;;;;;;3.83;3.20;;;;;;;13.48;92.13;100301.78;5095271;28;20793;-82
2023/08/28 00:40:13;;;;;;;4.10;3.70;;;;;;;13.45;92.40;100299.34;5094517;28;20562;-82
2023/08/28 00:42:39;;;;;;;3.77;3.00;;;;;;;13.47;92.37;100305.44;5083047;28;20487;-82
2023/08/28 00:45:07;;;;;;;4.27;3.43;;;;;;;13.43;91.99;100291.47;5089836;28;20292;-83
2023/08/28 00:47:34;;;;;;;4.47;3.60;;;;;;;13.40;92.98;100298.88;5091907;28;20222;-81
2023/08/28 00:50:01;;;;;;;4.60;3.57;;;;;;;13.40;92.93;100294.38;5093087;28;20201;-81
2023/08/28 00:52:29;;;;;;;5.07;3.97;;;;;;;13.38;93.04;100295.47;5091914;28;20200;-83
2023/08/28 00:54:55;;;;;;;4.97;4.40;;;;;;;13.34;92.87;100297.53;5089154;28;20211;-83
2023/08/28 00:57:23;;;;;;;4.07;3.67;;;;;;;13.34;92.92;100304.72;5093055;28;20224;-81
2023/08/28 00:59:50;;;;;;;4.60;4.13;;;;;;;13.34;92.95;100304.72;5093147;28;20207;-80
2023/08/28 01:02:17;;;;;;;5.67;4.20;;;;;;;13.37;92.61;100302.66;5091414;28;20204;-82
2023/08/28 01:04:43;;;;;;;4.23;3.80;;;;;;;13.34;93.18;100312.75;5089748;28;20697;-81
2023/08/28 01:07:20;;;;;;;3.83;3.47;;;;;;;13.35;93.23;100307.28;5088940;28;20571;-81
2023/08/28 01:10:02;;;;;;;5.17;4.63;;;;;;;13.38;92.57;100308.84;5089909;28;20671;-80
2023/08/28 01:12:35;;;;;;;5.73;4.23;;;;;;;13.33;93.29;100305.69;5090831;28;20261;-82
2023/08/28 01:15:10;;;;;;;5.33;4.53;;;;;;;13.29;93.31;100306.91;5086816;28;20205;-82
2023/08/28 01:17:38;;;;;;;5.23;4.73;;;;;;;13.28;93.08;100314.06;5088961;28;20699;-80
2023/08/28 01:20:07;;;;;;;5.77;5.27;;;;;;;13.25;93.71;100319.69;5091459;28;20208;-81
2023/08/28 01:22:41;;;;;;;6.47;5.50;;;;;;;13.27;93.66;100319.53;5091738;28;20657;-81
2023/08/28 01:25:10;;;;;;;9.10;6.23;;;;;;;13.23;93.81;100323.47;5092843;28;20211;-81
2023/08/28 01:27:38;;;;;;;6.57;5.97;;;;;;;13.20;94.08;100320.06;5088394;28;20250;-82
2023/08/28 01:30:06;;;;;;;7.00;6.30;;;;;;;13.21;93.85;100323.56;5091381;28;20200;-82
2023/08/28 01:32:33;;;;;;;6.67;5.90;;;;;;;13.20;94.27;100320.06;5083228;28;20230;-85
2023/08/28 01:35:03;;;;;;;7.47;5.97;;;;;;;13.18;94.80;100316.66;5086896;28;20563;-86
2023/08/28 01:37:51;;;;;;;7.03;6.43;;;;;;;13.18;94.61;100323.81;5089854;28;20600;-86
2023/08/28 01:40:24;;;;;;;7.20;6.03;;;;;;;13.16;94.50;100325.75;5084454;28;20571;-85
2023/08/28 01:42:51;;;;;;;7.77;6.37;;;;;;;13.18;94.70;100334.50;5084628;28;20568;-86
2023/08/28 01:45:19;;;;;;;7.87;6.80;;;;;;;13.19;94.68;100329.03;5088091;28;20211;-86
2023/08/28 01:47:45;;;;;;;8.83;7.13;;;;;;;13.17;95.06;100324.78;5082080;28;20221;-86
2023/08/28 01:50:12;;;;;;;8.47;7.63;;;;;;;13.15;95.10;100321.38;5085363;28;20200;-85
2023/08/28 01:52:38;;;;;;;7.07;6.47;;;;;;;13.14;95.38;100330.34;5087473;28;20223;-86
2023/08/28 01:55:06;;;;;;;8.57;7.67;;;;;;;13.13;95.42;100318.78;5088548;28;20264;-85
2023/08/28 01:57:34;;;;;;;8.80;7.93;;;;;;;13.14;95.42;100333.00;5088296;28;20593;-86
2023/08/28 02:00:00;;;;;;;9.33;7.20;;;;;;;13.14;95.55;100339.22;5091537;28;20208;-86
2023/08/28 02:02:27;;;;;;;7.93;6.57;;;;;;;13.13;95.29;100331.31;5089241;28;20217;-85
2023/08/28 02:04:53;;;;;;;8.37;7.23;;;;;;;13.11;95.75;100331.44;5085318;28;20211;-85
2023/08/28 02:07:19;;;;;;;8.57;7.13;;;;;;;13.11;96.04;100328.75;5093894;28;20643;-85
2023/08/28 02:09:47;;;;;;;8.20;7.40;;;;;;;13.09;95.98;100325.34;5093237;28;20208;-86
2023/08/28 02:12:14;;;;;;;7.60;6.77;;;;;;;13.09;96.04;100333.38;5091719;28;20204;-86
2023/08/28 02:14:41;;;;;;;8.07;6.60;;;;;;;13.08;95.71;100323.63;5091569;28;20220;-86
2023/08/28 02:17:08;;;;;;;9.70;7.60;;;;;;;13.08;96.15;100328.13;5090724;28;20223;-86
2023/08/28 02:19:34;;;;;;;9.73;7.30;;;;;;;13.08;95.75;100318.28;5090511;28;20196;-85
2023/08/28 02:22:01;;;;;;;9.33;7.37;;;;;;;13.08;96.21;100322.78;5088340;28;20207;-87
2023/08/28 02:24:27;;;;;;;8.13;7.33;;;;;;;13.10;96.19;100320.84;5087338;28;20195;-86
2023/08/28 02:26:54;;;;;;;8.60;7.70;;;;;;;13.09;96.40;100325.34;5093186;28;20224;-85
2023/08/28 02:29:20;;;;;;;9.60;7.63;;;;;;;13.10;96.32;100320.84;5090949;28;20200;-85
2023/08/28 02:31:48;;;;;;;8.50;7.10;;;;;;;13.11;95.90;100325.22;5092674;28;20208;-86
2023/08/28 02:34:14;;;;;;;9.13;7.73;;;;;;;13.11;96.20;100323.41;5089597;28;20223;-86
2023/08/28 02:36:41;;;;;;;9.30;8.27;;;;;;;13.09;95.91;100320.00;5088118;28;20240;-85
2023/08/28 02:39:07;;;;;;;8.90;7.90;;;;;;;13.08;95.95;100323.63;5090686;28;20219;-85
2023/08/28 02:41:33;;;;;;;8.73;7.90;;;;;;;13.06;95.89;100309.56;5087646;28;20205;-86
2023/08/28 02:44:00;;;;;;;8.90;7.67;;;;;;;13.04;96.29;100311.50;5095200;28;20213;-86
2023/08/28 02:46:26;;;;;;;8.97;8.00;;;;;;;13.00;96.30;100315.38;5088002;28;20200;-86
2023/08/28 02:48:54;;;;;;;8.90;8.00;;;;;;;13.00;96.20;100311.88;5090808;28;20196;-85
2023/08/28 02:51:20;;;;;;;8.80;7.90;;;;;;;12.99;96.35;100302.16;5085094;28;20202;-86
2023/08/28 02:53:47;;;;;;;10.40;8.43;;;;;;;12.97;96.50;100294.25;5091753;28;20220;-84
2023/08/28 02:56:25;;;;;;;9.30;8.27;;;;;;;12.95;96.19;100304.19;5087046;28;20207;-85
2023/08/28 02:58:52;;;;;;;10.07;8.57;;;;;;;12.93;96.36;100308.81;5090916;28;20223;-86
2023/08/28 03:01:19;;;;;;;10.63;8.40;;;;;;;12.93;96.42;100324.00;5091356;28;20196;-85
2023/08/28 03:03:46;;;;;;;9.90;8.57;;;;;;;12.93;96.87;100324.00;5093002;28;20196;-85
2023/08/28 03:06:15;;;;;;;10.00;7.83;;;;;;;12.91;97.16;100320.59;5090929;28;20196;-86
2023/08/28 03:08:41;;;;;;;10.57;9.27;;;;;;;12.89;97.08;100320.75;5092288;28;20273;-86
2023/08/28 03:11:08;;;;;;;9.57;8.07;;;;;;;12.90;97.25;100325.09;5094713;28;20229;-86
2023/08/28 03:13:34;;;;;;;10.40;8.17;;;;;;;12.88;98.04;100329.72;5094130;28;20236;-86
2023/08/28 03:16:00;;;;;;;10.13;8.67;;;;;;;12.90;97.97;100338.44;5093774;28;20208;-86
2023/08/28 03:18:27;;;;;;;10.00;8.33;;;;;;;12.89;98.36;100344.78;5092512;28;20307;-86
2023/08/28 03:20:54;;;;;;;10.63;8.80;;;;;;;12.90;98.18;100357.16;5093953;28;20212;-86
2023/08/28 03:23:22;;;;;;;10.30;9.10;;;;;;;12.91;98.62;100364.22;5097196;28;20671;-85
2023/08/28 03:25:50;;;;;;;10.30;9.30;;;;;;;12.91;98.35;100368.69;5094522;28;20869;-86
2023/08/28 03:28:16;;;;;;;10.20;8.83;;;;;;;12.90;98.42;100367.03;5093041;28;20220;-86
2023/08/28 03:30:43;;;;;;;11.83;10.60;;;;;;;12.89;98.59;100366.19;5093597;28;20232;-86
2023/08/28 03:33:09;;;;;;;12.90;9.47;;;;;;;12.90;98.57;100361.69;5097672;28;20207;-86
2023/08/28 03:35:36;;;;;;;10.43;9.33;;;;;;;12.94;98.56;100363.13;5092855;28;20566;-87
2023/08/28 03:38:02;;;;;;;11.57;10.37;;;;;;;12.91;98.47;100358.00;5094332;28;20220;-86
2023/08/28 03:40:30;;;;;;;10.37;9.30;;;;;;;12.92;98.46;100357.91;5089927;28;20200;-87
2023/08/28 03:42:57;;;;;;;11.20;9.87;;;;;;;12.91;98.69;100347.31;5093411;28;20211;-86
2023/08/28 03:45:23;;;;;;;12.13;10.40;;;;;;;12.91;98.86;100342.81;5088235;28;20200;-87
2023/08/28 03:47:50;;;;;;;12.37;10.27;;;;;;;12.91;98.67;100347.31;5091869;28;20711;-86
2023/08/28 03:50:16;;;;;;;11.87;10.47;;;;;;;12.90;98.93;100340.31;5086861;28;20204;-86
2023/08/28 03:52:43;;;;;;;12.47;10.83;;;;;;;12.90;99.34;100334.97;5089551;28;20211;-86
2023/08/28 03:55:10;;;;;;;11.87;10.63;;;;;;;12.88;99.69;100331.56;5094427;28;20211;-85
2023/08/28 03:57:38;;;;;;;15.87;12.43;;;;;;;12.88;99.70;100323.53;5090046;28;20269;-86
2023/08/28 04:00:10;;;;;;;13.03;11.23;;;;;;;12.89;99.62;100323.41;5093349;28;20204;-86
2023/08/28 04:02:38;;;;;;;12.90;11.50;;;;;;;12.89;99.63;100310.06;5091863;28;20196;-86
2023/08/28 04:05:06;;;;;;;14.60;11.23;;;;;;;12.91;99.39;100300.06;5093232;28;20203;-86
2023/08/28 04:07:33;;;;;;;15.33;11.53;;;;;;;12.91;99.40;100305.41;5093096;28;20227;-86
2023/08/28 04:09:59;;;;;;;15.13;11.70;;;;;;;12.89;99.29;100302.03;5092753;28;20199;-85
2023/08/28 04:12:26;;;;;;;14.43;12.20;;;;;;;12.88;99.45;100313.69;5092490;28;20211;-86
2023/08/28 04:14:54;;;;;;;14.20;12.60;;;;;;;12.88;99.12;100321.72;5093673;28;20223;-86
2023/08/28 04:17:20;;;;;;;13.73;12.20;;;;;;;12.85;99.75;100319.28;5098512;28;20226;-86
2023/08/28 04:19:50;;;;;;;13.57;11.87;;;;;;;12.84;99.26;100317.56;5093781;28;20690;-86
2023/08/28 04:22:16;;;;;;;15.10;11.77;;;;;;;12.85;99.57;100324.63;5092537;28;20205;-86
2023/08/28 04:24:45;;;;;;;13.37;11.67;;;;;;;12.83;99.95;100322.06;5085178;28;20207;-86
2023/08/28 04:27:11;;;;;;;14.50;11.50;;;;;;;12.82;99.97;100322.19;5096838;28;20215;-86
2023/08/28 04:29:38;;;;;;;15.37;11.90;;;;;;;12.78;99.96;100324.22;5096070;28;20208;-86
2023/08/28 04:32:07;;;;;;;12.67;11.17;;;;;;;12.76;100.00;100314.63;5088659;28;20208;-86
2023/08/28 04:34:33;;;;;;;15.13;11.70;;;;;;;12.76;100.00;100309.28;5089796;28;20249;-87
2023/08/28 04:37:00;;;;;;;13.23;11.87;;;;;;;12.75;100.00;100305.75;5089433;28;20230;-87
2023/08/28 04:39:26;;;;;;;14.00;11.60;;;;;;;12.75;100.00;100312.91;5087272;28;20539;-87
2023/08/28 04:41:53;;;;;;;13.67;11.53;;;;;;;12.74;100.00;100309.41;5091582;28;20234;-87
2023/08/28 04:44:20;;;;;;;12.40;11.10;;;;;;;12.74;100.00;100309.41;5082808;28;20200;-87
2023/08/28 04:46:47;;;;;;;12.60;10.67;;;;;;;12.77;100.00;100316.34;5089527;28;20215;-85
2023/08/28 04:49:15;;;;;;;13.83;11.20;;;;;;;12.78;100.00;100318.03;5087304;28;20199;-85
2023/08/28 04:51:42;;;;;;;12.33;10.60;;;;;;;12.79;100.00;100314.38;5088437;28;20725;-84
2023/08/28 04:54:08;;;;;;;12.60;11.27;;;;;;;12.81;100.00;100315.13;5090662;28;20231;-85
2023/08/28 04:56:35;;;;;;;14.10;11.63;;;;;;;12.80;100.00;100308.94;5088680;28;20215;-86
2023/08/28 04:59:01;;;;;;;13.70;10.77;;;;;;;12.81;100.00;100315.97;5093569;28;20200;-86
2023/08/28 05:01:29;;;;;;;11.77;10.37;;;;;;;12.80;100.00;100316.09;5092318;28;20203;-87
2023/08/28 05:03:55;;;;;;;12.37;11.23;;;;;;;12.83;100.00;100332.75;5091668;28;20239;-87
2023/08/28 05:06:23;;;;;;;14.03;11.57;;;;;;;12.85;100.00;100337.97;5086476;28;20202;-86
2023/08/28 05:08:50;;;;;;;11.93;10.63;;;;;;;12.86;100.00;100345.88;5091307;28;20737;-86
2023/08/28 05:11:16;;;;;;;11.93;10.63;;;;;;;12.88;100.00;100339.56;5092254;28;20202;-87
2023/08/28 05:13:43;;;;;;;12.17;10.93;;;;;;;12.88;100.00;100335.06;5091311;28;20215;-86
2023/08/28 05:16:09;;;;;;;12.23;9.80;;;;;;;12.90;100.00;100333.09;5089699;28;20215;-86
2023/08/28 05:18:36;;;;;;;11.53;10.33;;;;;;;12.92;100.00;100344.53;5087648;28;20224;-86
2023/08/28 05:21:02;;;;;;;12.00;10.40;;;;;;;12.96;100.00;100339.81;5087279;28;20203;-85
2023/08/28 05:23:30;;;;;;;11.47;9.73;;;;;;;12.99;100.00;100343.09;5086869;28;20209;-82
2023/08/28 05:25:56;;;;;;;11.90;10.43;;;;;;;13.03;100.00;100346.38;5085129;28;20676;-84
2023/08/28 05:28:23;;;;;;;11.90;10.63;;;;;;;13.05;100.00;100342.63;5084334;28;20235;-83
2023/08/28 05:30:49;;;;;;;11.67;10.00;;;;;;;13.09;100.00;100353.91;5087339;28;20717;-82
2023/08/28 05:33:16;;;;;;;14.87;10.90;;;;;;;13.14;100.00;100349.91;5088791;28;20203;-82
2023/08/28 05:35:43;;;;;;;12.80;10.77;;;;;;;13.17;100.00;100339.00;5086059;28;20228;-82
2023/08/28 05:38:11;;;;;;;12.47;11.20;;;;;;;13.22;100.00;100344.00;5085275;28;20226;-83
2023/08/28 05:40:39;;;;;;;12.43;10.80;;;;;;;13.30;100.00;100344.22;5087487;28;20676;-82
2023/08/28 05:43:06;;;;;;;15.17;10.70;;;;;;;13.36;100.00;100345.56;5088818;28;20594;-83
2023/08/28 05:45:32;;;;;;;11.27;10.00;;;;;;;13.46;100.00;100351.88;5085434;28;20650;-82
2023/08/28 05:47:59;;;;;;;11.30;10.20;;;;;;;13.54;99.47;100338.75;5089058;28;20250;-82
2023/08/28 05:50:26;;;;;;;11.43;10.23;;;;;;;13.62;99.13;100343.47;5089059;28;20204;-82
2023/08/28 05:52:52;;;;;;;11.40;10.17;;;;;;;13.70;98.26;100357.94;5089065;28;20611;-82
2023/08/28 05:55:19;;;;;;;11.70;10.10;;;;;;;13.80;97.79;100358.03;5087150;28;20221;-82
2023/08/28 05:57:46;;;;;;;11.43;10.33;;;;;;;13.91;97.42;100360.69;5089822;28;20236;-83
2023/08/28 06:00:14;;;;;;;11.23;10.23;;;;;;;13.97;96.28;100362.88;5087604;28;20589;-82
2023/08/28 06:02:41;;;;;;;11.67;10.57;;;;;;;14.03;96.41;100374.91;5089512;28;20215;-84
2023/08/28 06:05:08;;;;;;;11.47;10.27;;;;;;;14.13;95.18;100367.81;5084399;28;20216;-84
2023/08/28 06:07:34;;;;;;;11.57;10.20;;;;;;;14.21;94.95;100368.88;5088389;28;20796;-83
2023/08/28 06:10:01;;;;;;;13.17;11.67;;;;;;;14.29;94.56;100373.63;5086490;28;20204;-83
2023/08/28 06:12:27;;;;;;;11.47;10.37;;;;;;;14.37;94.03;100373.81;5078269;28;20216;-84
2023/08/28 06:14:55;;;;;;;12.03;10.87;;;;;;;14.45;94.00;100382.09;5086387;28;20224;-82
2023/08/28 06:17:23;;;;;;;11.63;10.43;;;;;;;14.56;92.93;100381.19;5089019;28;20688;-83
2023/08/28 06:19:50;;;;;;;11.00;9.87;;;;;;;14.64;92.57;100377.88;5081559;28;20196;-83
2023/08/28 06:22:16;;;;;;;12.03;10.53;;;;;;;14.70;91.88;100372.81;5080269;28;20207;-83
2023/08/28 06:24:43;;;;;;;10.73;9.63;;;;;;;14.74;90.96;100381.47;5087388;28;20207;-83
2023/08/28 06:27:09;;;;;;;11.77;10.47;;;;;;;14.78;90.16;100364.16;5087948;28;20216;-84
2023/08/28 06:29:36;;;;;;;10.67;9.60;;;;;;;14.82;89.96;100373.63;5092198;28;20652;-85
2023/08/28 06:32:04;;;;;;;12.03;10.83;;;;;;;14.83;89.54;100351.22;5085607;28;20224;-83
2023/08/28 06:34:30;;;;;;;11.63;10.47;;;;;;;14.85;89.39;100352.78;5083046;28;20227;-83
2023/08/28 06:36:57;;;;;;;11.53;10.33;;;;;;;14.90;89.50;100360.41;5091579;28;20243;-83
2023/08/28 06:39:23;;;;;;;11.80;10.60;;;;;;;14.97;90.00;100356.22;5088015;28;20198;-83
2023/08/28 06:41:50;;;;;;;12.20;11.00;;;;;;;15.03;89.27;100347.66;5087862;28;20220;-83
2023/08/28 06:44:16;;;;;;;12.23;11.10;;;;;;;15.10;89.08;100348.81;5088547;28;20219;-84
2023/08/28 06:46:43;;;;;;;12.63;11.43;;;;;;;15.15;89.23;100343.91;5091550;28;20212;-84
2023/08/28 06:49:10;;;;;;;12.20;10.90;;;;;;;15.21;89.23;100343.38;5089869;28;20201;-83
2023/08/28 06:51:37;;;;;;;11.70;10.57;;;;;;;15.28;88.18;100330.25;5088203;28;20205;-85
2023/08/28 06:54:03;;;;;;;12.10;10.10;;;;;;;15.37;87.92;100331.28;5094979;28;20205;-83
2023/08/28 06:56:30;;;;;;;11.33;10.00;;;;;;;15.44;87.40;100340.47;5094846;28;20626;-83
2023/08/28 06:58:57;;;;;;;12.00;10.80;;;;;;;15.50;86.95;100337.25;5092400;28;20205;-84
2023/08/28 07:01:23;;;;;;;10.97;9.87;;;;;;;15.59;86.81;100333.78;5089894;28;20313;-83
2023/08/28 07:03:50;;;;;;;11.43;10.43;;;;;;;15.65;85.82;100337.75;5093238;28;20206;-83
2023/08/28 07:06:18;;;;;;;11.43;10.43;;;;;;;15.73;86.58;100338.78;5090775;28;20642;-83
2023/08/28 07:08:44;;;;;;;12.93;10.30;;;;;;;15.86;85.32;100339.38;5093461;28;20253;-84
2023/08/28 07:11:11;;;;;;;13.93;10.63;;;;;;;15.95;84.80;100337.69;5088288;28;20562;-84
2023/08/28 07:13:37;;;;;;;10.20;9.17;;;;;;;16.01;83.27;100336.28;5086696;28;20705;-83
2023/08/28 07:16:04;;;;;;;9.90;8.90;;;;;;;16.07;83.47;100333.03;5088442;28;20605;-83
2023/08/28 07:18:31;;;;;;;11.07;9.27;;;;;;;16.14;83.20;100343.06;5086992;28;20248;-84
2023/08/28 07:20:57;;;;;;;10.37;9.00;;;;;;;16.20;82.50;100339.00;5093171;28;20208;-83
2023/08/28 07:23:25;;;;;;;8.23;7.43;;;;;;;16.25;82.12;100347.50;5093202;28;20210;-84
2023/08/28 07:25:52;;;;;;;8.60;7.80;;;;;;;16.35;82.64;100339.41;5092157;28;20295;-85
2023/08/28 07:28:19;;;;;;;11.77;8.33;;;;;;;16.42;80.78;100354.84;5093753;28;20227;-85
2023/08/28 07:30:46;;;;;;;11.33;8.07;;;;;;;16.51;80.86;100358.50;5093267;28;20218;-83
2023/08/28 07:33:12;;;;;;;9.60;8.77;;;;;;;16.61;80.37;100354.84;5088476;28;20208;-84
2023/08/28 07:35:42;;;;;;;8.27;7.40;;;;;;;16.71;79.51;100362.06;5094719;28;20219;-85
2023/08/28 07:38:09;;;;;;;9.10;8.30;;;;;;;16.77;79.21;100366.88;5089205;28;20221;-84
2023/08/28 07:40:37;;;;;;;8.10;7.30;;;;;;;16.87;78.19;100362.31;5087087;28;20208;-83
2023/08/28 07:43:03;;;;;;;9.67;7.93;;;;;;;16.90;77.40;100372.78;5094927;28;20211;-83
2023/08/28 07:45:31;;;;;;;8.97;8.17;;;;;;;17.00;77.20;100365.56;5087738;28;20208;-83
2023/08/28 07:47:59;;;;;;;8.30;7.50;;;;;;;17.08;76.55;100359.44;5089548;28;20225;-83
2023/08/28 07:50:25;;;;;;;7.43;6.73;;;;;;;17.18;76.61;100360.28;5094547;28;20584;-84
2023/08/28 07:52:52;;;;;;;7.40;6.70;;;;;;;17.27;76.09;100359.38;5094183;28;20292;-83
2023/08/28 07:55:18;;;;;;;8.03;7.23;;;;;;;17.37;75.90;100359.38;5092918;28;20223;-84
2023/08/28 07:57:46;;;;;;;7.03;6.33;;;;;;;17.50;75.48;100360.72;5093406;28;20602;-83
2023/08/28 08:00:16;;;;;;;8.27;6.20;;;;;;;17.62;74.92;100361.38;5080774;28;20249;-83
2023/08/28 08:02:43;;;;;;;6.60;6.00;;;;;;;17.76;74.99;100373.50;5091537;28;20213;-83
2023/08/28 08:05:10;;;;;;;6.57;5.87;;;;;;;17.89;73.23;100368.63;5093262;28;20232;-82
2023/08/28 08:07:37;;;;;;;6.13;5.40;;;;;;;18.00;72.83;100369.25;5081907;28;20227;-83
2023/08/28 08:10:07;;;;;;;7.33;5.90;;;;;;;18.14;72.30;100377.81;5092791;28;20210;-83
2023/08/28 08:12:33;;;;;;;6.27;5.67;;;;;;;18.25;71.78;100367.69;5093528;28;20215;-83
2023/08/28 08:15:01;;;;;;;5.77;5.20;;;;;;;18.35;71.17;100368.44;5090678;28;20228;-84
2023/08/28 08:17:28;;;;;;;5.80;5.30;;;;;;;18.45;70.74;100368.34;5092148;28;20694;-82
2023/08/28 08:19:54;;;;;;;5.40;4.90;;;;;;;18.51;69.71;100370.44;5086564;28;20920;-83
2023/08/28 08:22:21;;;;;;;6.63;5.53;;;;;;;18.53;69.18;100371.13;5089130;28;20294;-84
2023/08/28 08:24:47;;;;;;;6.63;4.83;;;;;;;18.61;69.46;100365.00;5093236;28;20215;-82
2023/08/28 08:27:14;;;;;;;5.37;4.87;;;;;;;18.73;69.06;100369.16;5094274;28;20238;-82
2023/08/28 08:29:40;;;;;;;6.80;4.70;;;;;;;18.85;68.89;100364.34;5088145;28;20199;-82
2023/08/28 08:32:08;;;;;;;5.73;4.30;;;;;;;18.94;68.53;100360.72;5093858;28;20212;-82
2023/08/28 08:34:34;;;;;;;4.77;4.37;;;;;;;19.04;68.25;100367.69;5082927;28;20203;-82
2023/08/28 08:37:01;;;;;;;4.43;4.00;;;;;;;19.13;67.19;100368.59;5092482;28;20232;-82
2023/08/28 08:39:27;;;;;;;4.37;3.77;;;;;;;19.24;66.70;100371.03;5089878;28;20210;-84
2023/08/28 08:41:54;;;;;;;4.63;3.97;;;;;;;19.29;67.00;100384.91;5091003;28;20209;-82
2023/08/28 08:44:21;;;;;;;4.50;4.10;;;;;;;19.28;65.67;100377.81;5086255;28;20207;-84
2023/08/28 08:46:49;;;;;;;4.77;3.83;;;;;;;19.30;65.76;100373.09;5090725;28;20209;-83
2023/08/28 08:49:20;;;;;;;4.67;3.47;;;;;;;19.31;65.67;100377.50;5088330;28;20210;-83
2023/08/28 08:51:49;;;;;;;4.43;3.27;;;;;;;19.34;65.60;100381.72;5090721;28;20288;-84
2023/08/28 08:54:19;;;;;;;3.67;2.80;;;;;;;19.35;65.74;100378.84;5088627;28;20259;-82
2023/08/28 08:56:51;;;;;;;3.37;2.83;;;;;;;19.39;65.29;100387.47;5089783;28;20313;-84
2023/08/28 08:59:18;;;;;;;4.13;3.00;;;;;;;19.42;64.74;100387.16;5088522;28;20213;-84
2023/08/28 09:01:45;;;;;;;8.03;2.77;;;;;;;19.42;64.49;100393.41;5091411;28;20215;-84
2023/08/28 09:04:12;;;;;;;4.50;2.73;;;;;;;19.42;65.20;100393.41;5090886;28;20197;-83
2023/08/28 09:06:42;;;;;;;2.77;2.50;;;;;;;19.46;65.55;100390.41;5092962;28;20196;-82
2023/08/28 09:09:11;;;;;;;2.37;2.17;;;;;;;19.47;65.30;100398.34;5092709;28;20209;-84
2023/08/28 09:11:40;;;;;;;2.80;2.27;;;;;;;19.45;63.74;100386.00;5090888;28;20294;-82
2023/08/28 09:14:06;;;;;;;2.30;2.10;;;;;;;19.46;63.69;100395.81;5090430;28;20648;-83
2023/08/28 09:16:34;;;;;;;2.97;1.97;;;;;;;19.51;64.30;100388.09;5084649;28;20216;-82
2023/08/28 09:19:00;;;;;;;2.37;2.10;;;;;;;19.56;63.76;100393.84;5091238;28;20203;-82
2023/08/28 09:21:28;;;;;;;4.57;2.47;;;;;;;19.61;62.97;100392.38;5085745;28;20653;-82
2023/08/28 09:23:55;;;;;;;4.00;3.03;;;;;;;19.65;62.46;100391.03;5089528;28;20600;-82
2023/08/28 09:26:23;;;;;;;3.97;3.10;;;;;;;19.66;62.71;100381.94;5088373;28;20579;-83
2023/08/28 09:28:59;;;;;;;4.37;3.40;;;;;;;19.72;62.15;100381.25;5092269;28;20761;-82
2023/08/28 09:31:28;;;;;;;3.30;3.00;;;;;;;19.70;61.60;100377.91;5092742;28;20195;-83
2023/08/28 09:33:55;;;;;;;2.90;2.65;;;;;;;19.76;62.33;100376.38;5090655;28;20237;-83
2023/08/28 09:36:21;;;;;;;4.25;3.47;;;;;;;19.81;61.30;100376.75;5091500;28;20710;-82
2023/08/28 09:38:48;;;;;;;3.23;2.93;;;;;;;19.84;61.30;100367.47;5091192;28;20230;-82
2023/08/28 09:41:16;;;;;;;2.67;2.38;;;;;;;19.82;61.36;100373.03;5091919;28;20200;-84
2023/08/28 09:43:42;;;;;;;2.40;2.20;;;;;;;19.82;60.53;100364.94;5091141;28;20203;-85
2023/08/28 09:46:09;;;;;;;3.13;2.13;;;;;;;19.88;61.19;100366.13;5092012;28;20285;-84
2023/08/28 09:48:36;;;;;;;3.00;2.23;;;;;;;19.90;60.42;100366.78;5090799;28;20219;-83
2023/08/28 09:51:04;;;;;;;3.90;2.40;;;;;;;19.92;60.70;100360.22;5092452;28;20210;-83
2023/08/28 09:53:31;;;;;;;4.03;2.77;;;;;;;19.96;59.91;100366.16;5091476;28;20198;-84
2023/08/28 09:55:58;;;;;;;3.27;1.90;;;;;;;19.97;59.97;100379.50;5090346;28;20230;-83
2023/08/28 09:58:28;;;;;;;3.47;2.00;;;;;;;20.01;60.48;100375.47;5092260;28;20630;-82
2023/08/28 10:00:56;;;;;;;2.50;2.20;;;;;;;20.07;60.10;100376.66;5090020;28;20757;-82
2023/08/28 10:03:24;;;;;;;2.10;1.90;;;;;;;20.11;59.82;100376.16;5092611;28;21380;-83
2023/08/28 10:05:53;;;;;;;3.13;2.08;;;;;;;20.15;59.87;100379.38;5092972;28;20218;-82
2023/08/28 10:08:19;;;;;;;3.13;2.55;;;;;;;20.15;59.97;100382.09;5093403;28;20238;-82
2023/08/28 10:10:48;;;;;;;6.03;2.42;;;;;;;20.17;59.79;100385.47;5093956;28;20215;-83
2023/08/28 10:13:17;;;;;;;3.05;2.28;;;;;;;20.22;59.28;100376.88;5090785;28;20208;-82
2023/08/28 10:15:52;;;;;;;3.33;1.80;;;;;;;20.29;58.65;100377.88;5092054;28;20272;-82
2023/08/28 10:18:25;;;;;;;2.38;2.00;;;;;;;20.30;58.45;100366.91;5089545;28;20219;-83
2023/08/28 10:20:52;;;;;;;2.42;2.20;;;;;;;20.32;58.53;100375.69;5092491;28;20228;-82
2023/08/28 10:23:21;;;;;;;2.55;1.88;;;;;;;20.37;58.61;100375.25;5097014;28;20207;-84
2023/08/28 10:25:50;;;;;;;3.55;2.08;;;;;;;20.39;58.49;100370.50;5098865;28;20203;-83
2023/08/28 10:28:18;;;;;;;3.97;2.20;;;;;;;20.41;57.93;100376.59;5096947;28;20706;-83
2023/08/28 10:30:45;;;;;;;4.47;2.60;;;;;;;20.35;58.21;100377.22;5096033;28;20208;-82
2023/08/28 10:33:15;;;;;;;2.20;2.08;;;;;;;20.31;58.56;100363.19;5093322;28;20208;-83
2023/08/28 10:35:42;;;;;;;2.45;1.38;;;;;;;20.30;58.68;100358.78;5091367;28;20291;-84
2023/08/28 10:38:10;;;;;;;3.00;1.80;;;;;;;20.33;58.38;100357.63;5093504;28;20239;-84
2023/08/28 10:40:37;;;;;;;2.03;1.33;;;;;;;20.33;58.37;100352.22;5088254;28;20211;-84
2023/08/28 10:43:05;;;;;;;1.80;1.45;;;;;;;20.38;58.19;100356.16;5094021;28;20211;-83
2023/08/28 10:45:35;;;;;;;1.63;1.20;;;;;;;20.44;58.02;100344.63;5093459;28;20585;-83
2023/08/28 10:48:01;;;;;;;2.83;1.63;;;;;;;20.48;58.40;100342.44;5095107;28;20225;-82
2023/08/28 10:50:36;;;;;;;2.30;1.58;;;;;;;20.54;58.54;100339.06;5094304;28;20207;-83
2023/08/28 10:53:03;;;;;;;2.38;1.45;;;;;;;20.57;57.94;100343.31;5094691;28;20200;-84
2023/08/28 10:55:30;;;;;;;2.03;1.65;;;;;;;20.64;57.77;100349.72;5094312;28;20661;-82
2023/08/28 10:58:01;;;;;;;1.75;1.40;;;;;;;20.69;57.67;100350.06;5095313;28;20683;-83
2023/08/28 11:00:29;;;;;;;1.95;1.40;;;;;;;20.70;57.23;100355.31;5088739;28;20196;-82
2023/08/28 11:03:07;;;;;;;2.80;1.92;;;;;;;20.77;57.44;100355.47;5092395;28;20226;-83
2023/08/28 11:05:36;;;;;;;1.95;1.52;;;;;;;20.82;57.39;100358.50;5094680;28;20204;-82
2023/08/28 11:08:04;;;;;;;1.27;1.17;;;;;;;20.92;57.22;100355.63;5089871;28;20224;-84
2023/08/28 11:10:31;;;;;;;0.90;0.90;;;;;;;21.02;56.72;100364.41;5092875;28;20204;-82
2023/08/28 11:13:02;;;;;;;2.75;1.30;;;;;;;21.05;55.94;100358.66;5094755;28;20235;-82
2023/08/28 11:15:30;;;;;;;2.67;1.40;;;;;;;21.05;55.77;100362.22;5083541;28;20219;-82
2023/08/28 11:18:30;;;;;;;1.13;0.98;;;;;;;21.10;54.95;100367.13;5094258;28;20223;-82
2023/08/28 11:21:00;;;;;;;2.63;1.23;;;;;;;21.12;54.86;100375.91;5094875;28;20208;-82